Time;durP1;ratioP1;P1;durP2;ratioP2;P2;SDS_P1;SDS_P2;PMS_P1;PMS_P2;Temp;Humidity;BMP_temperature;BMP_pressure;BME280_temperature;BME280_humidity;BME280_pressure;Samples;Min_cycle;Max_cycle;Signal;HPM_P1;HPM_P2
2023/10/17 00:00:32;;;;;;;0.10;0.10;;;;;;;9.66;73.25;102223.19;5055316;28;20033;-82
2023/10/17 00:02:59;;;;;;;0.10;0.10;;;;;;;9.66;73.32;102223.19;5059428;28;20032;-82
2023/10/17 00:05:26;;;;;;;0.17;0.17;;;;;;;9.66;73.26;102228.47;5060060;28;20063;-78
2023/10/17 00:07:52;;;;;;;0.10;0.10;;;;;;;9.66;73.09;102234.66;5058252;28;20036;-81
2023/10/17 00:10:18;;;;;;;0.10;0.10;;;;;;;9.68;73.24;102235.56;5058847;28;20075;-80
2023/10/17 00:12:50;;;;;;;0.20;0.20;;;;;;;9.69;73.02;102231.13;5054399;28;20056;-82
2023/10/17 00:15:35;;;;;;;0.20;0.20;;;;;;;9.69;73.29;102224.09;5059005;28;20044;-82
2023/10/17 00:18:05;;;;;;;0.55;0.55;;;;;;;9.68;73.12;102222.31;5053677;28;20030;-81
2023/10/17 00:20:37;;;;;;;0.10;0.10;;;;;;;9.71;73.20;102216.16;5054790;28;20029;-82
2023/10/17 00:23:04;;;;;;;0.20;0.20;;;;;;;9.71;73.00;102201.16;5056183;28;20025;-82
2023/10/17 00:25:30;;;;;;;0.10;0.10;;;;;;;9.70;73.31;102199.38;5058468;28;20055;-82
2023/10/17 00:27:58;;;;;;;0.20;0.20;;;;;;;9.70;72.81;102199.38;5047191;28;20351;-82
2023/10/17 00:30:29;;;;;;;0.20;0.20;;;;;;;9.71;72.99;102201.16;5057566;28;20039;-83
2023/10/17 00:32:55;;;;;;;0.10;0.10;;;;;;;9.72;72.93;102207.34;5057606;28;20033;-83
2023/10/17 00:35:25;;;;;;;0.10;0.10;;;;;;;9.72;72.90;102202.06;5061039;28;20120;-82
2023/10/17 00:37:57;;;;;;;0.10;0.10;;;;;;;9.71;72.74;102203.78;5058787;28;20510;-83
2023/10/17 00:40:56;;;;;;;0.10;0.10;;;;;;;9.77;72.69;102204.69;5055851;28;20625;-81
2023/10/17 00:43:11;;;;;;;0.10;0.10;;;;;;;9.82;72.14;102202.94;5068079;28;20102;-81
2023/10/17 00:45:38;;;;;;;1.73;1.65;;;;;;;9.82;72.36;102197.66;5062152;28;20103;-82
2023/10/17 00:48:08;;;;;;;0.20;0.20;;;;;;;9.82;72.31;102193.28;5056066;28;20021;-81
2023/10/17 00:50:37;;;;;;;0.10;0.10;;;;;;;9.83;72.42;102194.13;5039968;28;20029;-82
2023/10/17 00:53:06;;;;;;;0.10;0.10;;;;;;;9.83;72.31;102194.13;5072486;28;20107;-82
2023/10/17 00:55:35;;;;;;;0.10;0.10;;;;;;;9.83;72.23;102194.13;5060483;28;20115;-82
2023/10/17 00:58:03;;;;;;;0.20;0.20;;;;;;;9.83;72.51;102188.84;5055434;28;20028;-83
2023/10/17 01:00:36;;;;;;;0.20;0.20;;;;;;;9.84;72.38;102196.81;5054797;28;20486;-82
2023/10/17 01:03:10;;;;;;;0.10;0.10;;;;;;;9.86;72.25;102194.16;5053542;28;20090;-83
2023/10/17 01:05:57;;;;;;;0.10;0.10;;;;;;;9.91;72.36;102195.06;5051402;28;20031;-82
2023/10/17 01:08:27;;;;;;;0.10;0.10;;;;;;;9.86;72.41;102183.59;5054896;28;20037;-83
2023/10/17 01:10:53;;;;;;;0.10;0.10;;;;;;;9.86;72.62;102184.44;5048509;28;20017;-82
2023/10/17 01:13:19;;;;;;;0.28;0.28;;;;;;;9.86;72.48;102175.63;5049924;28;20104;-82
2023/10/17 01:15:45;;;;;;;13.35;1.25;;;;;;;9.87;72.30;102175.63;5040653;28;20108;-83
2023/10/17 01:18:11;;;;;;;0.10;0.10;;;;;;;9.90;72.25;102174.75;5053974;28;20029;-82
2023/10/17 01:20:37;;;;;;;0.10;0.10;;;;;;;9.89;72.41;102173.00;5051914;28;20036;-83
2023/10/17 01:23:04;;;;;;;0.20;0.20;;;;;;;9.88;72.34;102165.91;5048287;28;20408;-82
2023/10/17 01:25:34;;;;;;;0.10;0.10;;;;;;;9.87;72.50;102169.47;5051598;28;20504;-83
2023/10/17 01:28:01;;;;;;;0.10;0.10;;;;;;;9.87;72.60;102164.19;5041284;28;20120;-84
2023/10/17 01:30:32;;;;;;;0.13;0.13;;;;;;;9.87;72.45;102166.81;5050395;28;20033;-83
2023/10/17 01:32:59;;;;;;;0.20;0.20;;;;;;;9.89;72.43;102165.06;5052391;28;20407;-84
2023/10/17 01:35:26;;;;;;;0.25;0.25;;;;;;;9.89;72.52;102159.75;5048847;28;20029;-83
2023/10/17 01:37:52;;;;;;;0.10;0.10;;;;;;;9.90;72.36;102158.00;5045696;28;20033;-85
2023/10/17 01:40:22;;;;;;;0.10;0.10;;;;;;;9.90;72.22;102158.88;5050277;28;20131;-83
2023/10/17 01:42:51;;;;;;;0.10;0.10;;;;;;;9.92;72.29;102154.50;5050918;28;20031;-83
2023/10/17 01:45:20;;;;;;;0.10;0.10;;;;;;;9.91;72.35;102160.66;5049504;28;20116;-82
2023/10/17 01:47:47;;;;;;;0.10;0.10;;;;;;;9.91;72.58;102150.06;5046801;28;20036;-85
2023/10/17 01:50:13;;;;;;;0.10;0.10;;;;;;;9.91;72.68;102149.19;5046472;28;20036;-84
2023/10/17 01:52:42;;;;;;;0.20;0.20;;;;;;;9.91;72.55;102141.25;5049453;28;20462;-84
2023/10/17 01:55:13;;;;;;;0.10;0.10;;;;;;;9.92;72.54;102137.69;5046992;28;20036;-82
2023/10/17 01:57:40;;;;;;;0.10;0.10;;;;;;;9.93;72.41;102137.72;5050847;28;20460;-83
2023/10/17 02:00:17;;;;;;;0.20;0.20;;;;;;;9.93;72.60;102135.09;5052546;28;20150;-83
2023/10/17 02:02:43;;;;;;;0.10;0.10;;;;;;;9.94;72.37;102142.13;5048972;28;20033;-83
2023/10/17 02:05:12;;;;;;;0.10;0.10;;;;;;;9.91;72.20;102136.81;5052172;28;20090;-83
2023/10/17 02:07:38;;;;;;;0.10;0.10;;;;;;;9.91;72.44;102130.66;5051169;28;20086;-83
2023/10/17 02:10:07;;;;;;;0.10;0.10;;;;;;;9.90;72.38;102129.75;5052876;28;20041;-84
2023/10/17 02:12:34;;;;;;;0.10;0.10;;;;;;;9.90;72.38;102127.13;5052335;28;20174;-83
2023/10/17 02:15:00;;;;;;;0.10;0.10;;;;;;;9.90;72.44;102129.75;5053387;28;20025;-81
2023/10/17 02:17:27;;;;;;;0.10;0.10;;;;;;;9.87;72.30;102129.75;5062576;28;20037;-81
2023/10/17 02:19:53;;;;;;;0.10;0.10;;;;;;;9.87;72.49;102127.13;5072009;28;20319;-82
2023/10/17 02:22:24;;;;;;;0.20;0.20;;;;;;;9.86;72.36;102128.00;5067030;28;20031;-84
2023/10/17 02:24:56;;;;;;;0.30;0.30;;;;;;;9.87;72.35;102132.41;5061246;28;20025;-84
2023/10/17 02:27:23;;;;;;;0.10;0.10;;;;;;;9.86;72.34;102135.94;5058678;28;20032;-84
2023/10/17 02:29:49;;;;;;;0.10;0.10;;;;;;;9.85;72.31;102131.50;5043873;28;20028;-83
2023/10/17 02:32:16;;;;;;;1.55;0.90;;;;;;;9.87;72.43;102130.63;5057117;28;20036;-83
2023/10/17 02:34:43;;;;;;;0.13;0.13;;;;;;;9.87;72.52;102129.75;5056820;28;20043;-83
2023/10/17 02:37:11;;;;;;;0.30;0.30;;;;;;;9.88;72.33;102128.84;5052516;28;20036;-83
2023/10/17 02:39:38;;;;;;;0.15;0.15;;;;;;;9.86;72.35;102128.88;5051697;28;20040;-83
2023/10/17 02:42:08;;;;;;;0.10;0.10;;;;;;;9.84;72.36;102128.00;5052113;28;20025;-83
2023/10/17 02:44:39;;;;;;;0.10;0.10;;;;;;;9.85;72.37;102128.88;5051680;28;20033;-84
2023/10/17 02:47:07;;;;;;;0.30;0.30;;;;;;;9.84;72.21;102127.09;5062594;28;20036;-85
2023/10/17 02:49:37;;;;;;;0.30;0.30;;;;;;;9.84;72.25;102128.00;5065014;28;20094;-84
2023/10/17 02:52:04;;;;;;;0.20;0.20;;;;;;;9.84;72.32;102127.09;5062904;28;20025;-84
2023/10/17 02:54:34;;;;;;;0.10;0.10;;;;;;;9.85;72.42;102128.88;5061000;28;20029;-85
2023/10/17 02:57:00;;;;;;;0.13;0.13;;;;;;;9.86;72.27;102128.00;5057407;28;20036;-85
2023/10/17 02:59:27;;;;;;;0.10;0.10;;;;;;;9.85;72.19;102129.72;5059128;28;20029;-85
2023/10/17 03:01:53;;;;;;;5.07;3.30;;;;;;;9.86;72.25;102130.63;5055301;28;20078;-84
2023/10/17 03:04:23;;;;;;;0.20;0.20;;;;;;;9.85;72.18;102128.88;5049433;28;20028;-85
2023/10/17 03:06:54;;;;;;;0.10;0.10;;;;;;;9.85;72.23;102134.16;5074556;28;20033;-85
2023/10/17 03:12:07;;;;;;;2.58;2.45;;;;;;;9.84;72.07;102129.75;5101434;27;20399;-83
2023/10/17 03:17:27;;;;;;;0.20;0.20;;;;;;;9.85;71.91;102128.88;5102740;27;20404;-82
2023/10/17 03:19:53;;;;;;;0.10;0.10;;;;;;;9.84;72.06;102121.78;5077275;28;20071;-83
2023/10/17 03:22:24;;;;;;;0.20;0.20;;;;;;;9.83;72.04;102126.22;5072374;28;20041;-82
2023/10/17 03:24:51;;;;;;;0.10;0.10;;;;;;;9.83;72.25;102133.25;5073619;28;20028;-83
2023/10/17 03:27:49;;;;;;;0.10;0.10;;;;;;;9.83;71.95;102127.97;5077222;28;20487;-83
2023/10/17 03:30:08;;;;;;;0.20;0.20;;;;;;;9.83;72.12;102127.97;5072685;28;20123;-83
2023/10/17 03:32:34;;;;;;;0.25;0.25;;;;;;;9.81;72.08;102127.97;5075325;28;20043;-82
2023/10/17 03:35:03;;;;;;;0.20;0.20;;;;;;;9.80;72.38;102126.19;5074393;28;20411;-83
2023/10/17 03:37:29;;;;;;;0.10;0.10;;;;;;;9.81;72.12;102127.09;5071378;28;20090;-83
2023/10/17 03:40:15;;;;;;;0.20;0.20;;;;;;;9.83;72.20;102125.31;5079198;28;20066;-83
2023/10/17 03:42:45;;;;;;;0.20;0.20;;;;;;;9.82;71.96;102126.19;5077665;28;20025;-83
2023/10/17 03:45:16;;;;;;;0.20;0.20;;;;;;;9.82;72.02;102127.09;5071503;28;20030;-83
2023/10/17 03:47:53;;;;;;;0.28;0.28;;;;;;;9.82;72.38;102137.69;5071239;28;20132;-82
2023/10/17 03:50:36;;;;;;;0.10;0.10;;;;;;;9.82;71.86;102140.31;5075948;28;20032;-81
2023/10/17 03:53:07;;;;;;;0.10;0.10;;;;;;;9.83;71.91;102143.84;5084920;28;20063;-81
2023/10/17 03:55:35;;;;;;;0.20;0.20;;;;;;;9.83;71.92;102141.19;5069899;28;20774;-82
2023/10/17 03:58:18;;;;;;;0.10;0.10;;;;;;;9.83;72.04;102146.50;5070821;28;20630;-83
2023/10/17 04:00:45;;;;;;;0.10;0.10;;;;;;;9.82;71.93;102150.91;5074521;28;20071;-83
2023/10/17 04:03:21;;;;;;;0.20;0.20;;;;;;;9.81;72.02;102150.91;5089197;28;20487;-82
2023/10/17 04:05:49;;;;;;;0.10;0.10;;;;;;;9.81;71.82;102154.44;5083438;28;20048;-81
2023/10/17 04:08:19;;;;;;;0.30;0.30;;;;;;;9.81;71.92;102156.22;5086268;28;20491;-82
2023/10/17 04:10:49;;;;;;;0.10;0.10;;;;;;;9.81;72.07;102157.09;5079839;28;20037;-81
2023/10/17 04:13:22;;;;;;;0.20;0.20;;;;;;;9.82;72.05;102156.22;5080917;28;20581;-81
2023/10/17 04:15:48;;;;;;;0.52;0.52;;;;;;;9.80;72.16;102159.72;5078990;28;20483;-83
2023/10/17 04:18:14;;;;;;;0.10;0.10;;;;;;;9.80;72.29;102162.38;5082241;28;20028;-83
2023/10/17 04:20:46;;;;;;;0.10;0.10;;;;;;;9.79;72.34;102150.00;5071628;28;20630;-83
2023/10/17 04:23:21;;;;;;;0.10;0.10;;;;;;;9.81;72.23;102154.44;5084885;28;20032;-82
2023/10/17 04:25:55;;;;;;;0.22;0.22;;;;;;;9.84;72.37;102150.91;5077421;28;20127;-82
2023/10/17 04:28:26;;;;;;;0.10;0.10;;;;;;;9.84;72.34;102142.97;5058284;28;20037;-83
2023/10/17 04:30:56;;;;;;;0.10;0.10;;;;;;;9.83;72.30;102143.84;5059536;28;20029;-83
2023/10/17 04:33:22;;;;;;;0.10;0.10;;;;;;;9.83;72.32;102141.19;5058580;28;20025;-83
2023/10/17 04:35:55;;;;;;;0.10;0.10;;;;;;;9.86;72.46;102147.38;5058084;28;20228;-83
2023/10/17 04:38:37;;;;;;;0.10;0.10;;;;;;;9.84;72.53;102143.88;5059448;28;20511;-82
2023/10/17 04:41:17;;;;;;;0.10;0.10;;;;;;;9.84;72.47;102137.69;5061118;28;20067;-82
2023/10/17 04:43:44;;;;;;;0.20;0.20;;;;;;;9.83;72.60;102135.91;5058727;28;20025;-83
2023/10/17 04:46:10;;;;;;;0.25;0.25;;;;;;;9.83;72.45;102130.59;5062237;28;20043;-83
2023/10/17 04:48:40;;;;;;;0.20;0.20;;;;;;;9.83;72.18;102131.50;5066955;28;20033;-83
2023/10/17 04:51:19;;;;;;;0.32;0.32;;;;;;;9.81;72.56;102135.03;5061384;28;20036;-83
2023/10/17 04:53:49;;;;;;;0.20;0.20;;;;;;;9.82;72.34;102136.78;5048117;28;20025;-81
2023/10/17 04:56:17;;;;;;;0.10;0.10;;;;;;;9.81;72.49;102138.56;5058579;28;20087;-83
2023/10/17 05:02:13;;;;;;;0.20;0.20;;;;;;;9.79;72.36;102132.34;5087994;28;20397;-82
2023/10/17 05:04:19;;;;;;;0.15;0.15;;;;;;;9.78;72.28;102132.34;5081792;28;20569;-82
2023/10/17 05:07:21;;;;;;;0.10;0.10;;;;;;;9.79;72.21;102132.34;5097323;28;20029;-82
2023/10/17 06:18:49;;;;;;;0.10;0.10;;;;;;;9.03;72.26;102116.09;5087047;28;20044;-80
2023/10/17 06:21:23;;;;;;;0.20;0.20;;;;;;;8.98;72.61;102117.81;5088445;28;20376;-85
2023/10/17 06:26:59;;;;;;;0.20;0.20;;;;;;;8.91;72.37;102131.88;5105339;27;20121;-81
2023/10/17 06:32:04;;;;;;;0.10;0.10;;;;;;;8.85;72.51;102129.19;5053295;28;20399;-82
2023/10/17 06:34:31;;;;;;;0.17;0.17;;;;;;;8.83;72.27;102123.88;5048165;28;20052;-83
2023/10/17 06:36:59;;;;;;;0.10;0.10;;;;;;;8.81;72.42;102124.72;5047549;28;20044;-83
2023/10/17 06:39:36;;;;;;;0.08;0.08;;;;;;;8.78;72.23;102122.06;5041870;28;20105;-81
2023/10/17 06:42:27;;;;;;;0.10;0.10;;;;;;;8.74;72.01;102118.53;5039782;28;20037;-80
2023/10/17 06:44:53;;;;;;;0.20;0.20;;;;;;;8.70;72.81;102125.53;5061806;28;20029;-83
2023/10/17 06:47:30;;;;;;;0.10;0.10;;;;;;;8.69;72.22;102131.69;5045681;28;20041;-82
2023/10/17 06:55:29;;;;;;;0.10;0.10;;;;;;;8.61;72.59;102133.41;5063992;28;20846;-84
2023/10/17 06:57:57;;;;;;;0.10;0.10;;;;;;;8.58;72.25;102130.72;5049659;28;20083;-83
2023/10/17 07:00:27;;;;;;;0.10;0.10;;;;;;;8.55;72.76;102141.25;5044425;28;20033;-83
2023/10/17 07:02:56;;;;;;;0.20;0.20;;;;;;;8.54;72.10;102129.78;5032098;28;20025;-84
2023/10/17 07:05:26;;;;;;;0.20;0.20;;;;;;;8.53;72.52;102135.06;5039149;28;20093;-83
2023/10/17 07:07:53;;;;;;;0.10;0.10;;;;;;;8.55;72.66;102142.13;5032433;28;20108;-83
2023/10/17 07:13:41;;;;;;;0.10;0.10;;;;;;;8.65;72.07;102132.53;5077756;28;20390;-84
2023/10/17 07:16:11;;;;;;;0.10;0.10;;;;;;;8.58;72.54;102133.34;5059917;28;20033;-84
2023/10/17 07:18:44;;;;;;;0.20;0.20;;;;;;;8.60;72.68;102134.25;5070136;28;20050;-83
2023/10/17 07:23:56;;;;;;;0.20;0.20;;;;;;;8.64;72.40;102125.47;5126936;27;20408;-82
2023/10/17 07:26:38;;;;;;;0.15;0.15;;;;;;;8.68;72.69;102129.03;5093324;28;20032;-82
2023/10/17 07:29:05;;;;;;;0.20;0.20;;;;;;;8.72;72.50;102121.16;5090744;28;20039;-82
2023/10/17 07:31:32;;;;;;;0.10;0.10;;;;;;;8.77;72.40;102125.59;5096571;28;20051;-83
2023/10/17 07:36:58;;;;;;;0.15;0.15;;;;;;;8.85;72.63;102129.19;5111129;27;1205065;-82
2023/10/17 07:39:29;;;;;;;0.20;0.20;;;;;;;8.93;72.64;102129.25;5119154;27;20036;-83
2023/10/17 07:41:55;;;;;;;0.10;0.10;;;;;;;8.98;73.22;102133.66;5107793;28;20028;-82
2023/10/17 07:44:25;;;;;;;0.10;0.10;;;;;;;9.04;73.29;102122.28;5103600;28;20028;-82
2023/10/17 07:47:08;;;;;;;0.20;0.20;;;;;;;9.13;73.19;102129.38;5116567;28;20028;-83
2023/10/17 07:49:41;;;;;;;0.10;0.10;;;;;;;9.25;73.53;102116.22;5116914;27;20030;-83
2023/10/17 07:52:16;;;;;;;0.10;0.10;;;;;;;9.28;73.55;102113.59;5121416;28;20034;-82
2023/10/17 07:54:55;;;;;;;0.20;0.20;;;;;;;9.36;73.64;102111.00;5115851;27;20066;-82
2023/10/17 07:57:25;;;;;;;0.10;0.10;;;;;;;9.45;73.19;102111.03;5100931;28;20027;-81
2023/10/17 07:59:52;;;;;;;0.30;0.30;;;;;;;9.49;74.09;102110.19;5119882;28;20049;-81
2023/10/17 08:02:20;;;;;;;0.35;0.35;;;;;;;9.59;73.90;102111.09;5115655;28;20016;-81
2023/10/17 08:04:49;;;;;;;0.10;0.10;;;;;;;9.62;74.25;102108.50;5110476;28;20019;-82
2023/10/17 08:07:16;;;;;;;0.10;0.10;;;;;;;9.65;74.28;102105.84;5112777;28;20100;-81
2023/10/17 08:09:57;;;;;;;0.65;0.65;;;;;;;9.74;73.90;102104.13;5109293;28;20038;-82
2023/10/17 08:12:24;;;;;;;0.20;0.20;;;;;;;9.83;74.12;102117.38;5119407;28;20473;-82
2023/10/17 08:14:58;;;;;;;0.50;0.50;;;;;;;9.93;73.98;102115.66;5115205;28;20030;-83
2023/10/17 08:17:27;;;;;;;0.65;0.65;;;;;;;9.98;74.32;102119.19;5124693;28;20101;-83
2023/10/17 08:22:55;;;;;;;0.22;0.22;;;;;;;10.17;74.32;102109.53;5103584;28;20490;-85
2023/10/17 08:25:30;;;;;;;0.27;0.27;;;;;;;10.27;74.44;102106.03;5129474;28;20020;-83
2023/10/17 08:27:57;;;;;;;0.75;0.75;;;;;;;10.38;73.91;102110.47;5127059;27;20095;-83
2023/10/17 08:30:23;;;;;;;0.10;0.10;;;;;;;10.47;74.32;102116.69;5116574;28;20016;-80
2023/10/17 08:35:51;;;;;;;0.75;0.68;;;;;;;10.64;73.86;102111.41;5049957;28;20407;-82
2023/10/17 08:38:17;;;;;;;1.23;1.17;;;;;;;10.76;73.66;102114.94;5049176;28;20542;-82
2023/10/17 08:40:43;;;;;;;0.30;0.30;;;;;;;10.83;73.14;102109.63;5049952;28;20029;-81
2023/10/17 08:43:16;;;;;;;0.45;0.45;;;;;;;10.91;73.18;102120.19;5049311;28;20060;-82
2023/10/17 08:45:46;;;;;;;0.30;0.30;;;;;;;10.99;73.42;102123.75;5048394;28;20091;-82
2023/10/17 08:48:12;;;;;;;5.88;1.20;;;;;;;11.10;73.09;102126.38;5049252;28;20075;-82
2023/10/17 08:50:39;;;;;;;0.10;0.10;;;;;;;11.17;73.29;102129.91;5048861;28;20108;-81
2023/10/17 08:53:13;;;;;;;0.20;0.20;;;;;;;11.30;72.53;102134.31;5050586;28;20021;-82
2023/10/17 08:55:40;;;;;;;0.20;0.20;;;;;;;11.41;72.53;102138.69;5051427;28;20044;-81
2023/10/17 08:58:08;;;;;;;2.80;1.25;;;;;;;11.52;72.24;102139.53;5050888;28;20029;-82
2023/10/17 09:00:55;;;;;;;0.10;0.10;;;;;;;11.61;71.94;102146.59;5050184;28;20048;-81
2023/10/17 09:03:31;;;;;;;0.20;0.20;;;;;;;11.77;72.13;102134.16;5041566;28;20655;-83
2023/10/17 09:08:55;;;;;;;0.10;0.10;;;;;;;11.97;71.19;102127.00;5097009;27;20367;-83
2023/10/17 09:11:29;;;;;;;0.63;0.63;;;;;;;12.08;70.95;102129.59;5090299;28;20071;-83
2023/10/17 09:14:29;;;;;;;0.50;0.50;;;;;;;12.19;70.98;102124.22;5088401;28;20546;-83
2023/10/17 09:16:50;;;;;;;2.00;1.08;;;;;;;12.33;70.68;102125.91;5084896;28;20078;-81
2023/10/17 09:19:16;;;;;;;;;;;;;;;12.51;70.67;102125.78;5083758;28;20063;-84
2023/10/17 09:21:47;;;;;;;1.10;0.88;;;;;;;12.48;70.00;102122.28;5084621;28;19912;-84
2023/10/17 09:24:35;;;;;;;1.05;1.05;;;;;;;12.60;69.82;102117.72;5084275;28;20024;-83
2023/10/17 09:27:06;;;;;;;0.50;0.50;;;;;;;12.61;69.64;102113.28;5089027;28;20021;-83
2023/10/17 09:32:41;;;;;;;0.20;0.20;;;;;;;12.87;69.40;102123.72;5106235;27;1170694;-83
2023/10/17 09:35:10;;;;;;;0.15;0.15;;;;;;;12.88;68.57;102122.78;5111878;28;20031;-82
2023/10/17 09:37:41;;;;;;;0.10;0.10;;;;;;;12.98;68.83;102120.94;5126440;28;20032;-84
2023/10/17 09:40:12;;;;;;;0.20;0.20;;;;;;;13.06;68.59;102120.84;5121330;27;20024;-83
2023/10/17 09:42:40;;;;;;;0.88;0.70;;;;;;;13.14;68.05;102116.34;5109118;28;20020;-82
2023/10/17 09:45:09;;;;;;;0.65;0.65;;;;;;;13.23;68.33;102112.72;5109854;28;20034;-83
2023/10/17 09:47:41;;;;;;;0.30;0.30;;;;;;;13.33;67.66;102118.81;5109314;28;20024;-83
2023/10/17 09:50:12;;;;;;;0.10;0.10;;;;;;;13.39;66.43;102113.47;5103158;28;20439;-84
2023/10/17 09:52:40;;;;;;;0.10;0.10;;;;;;;13.45;66.04;102104.53;5110389;28;20032;-83
2023/10/17 09:55:09;;;;;;;0.10;0.10;;;;;;;13.56;67.49;102102.63;5101418;28;20089;-84
2023/10/17 09:57:39;;;;;;;0.10;0.10;;;;;;;13.63;66.83;102108.75;5108761;28;20375;-82
2023/10/17 10:02:43;;;;;;;0.10;0.10;;;;;;;13.72;65.19;102111.28;5105215;27;20389;-84
2023/10/17 10:05:28;;;;;;;0.10;0.10;;;;;;;13.82;64.33;102094.28;5093455;28;20054;-84
2023/10/17 10:07:59;;;;;;;0.90;0.82;;;;;;;13.87;65.50;102092.44;5088335;28;20037;-84
2023/10/17 10:10:48;;;;;;;0.20;0.20;;;;;;;14.03;65.73;102098.44;5086467;28;20553;-83
2023/10/17 10:13:14;;;;;;;12.40;2.38;;;;;;;14.01;65.23;102091.38;5096266;28;20050;-84
2023/10/17 10:21:12;;;;;;;0.45;0.45;;;;;;;14.30;65.33;102090.03;5106755;27;20370;-83
2023/10/17 10:23:41;;;;;;;0.10;0.10;;;;;;;14.35;63.74;102098.84;5096228;28;20058;-83
2023/10/17 10:28:48;;;;;;;0.10;0.10;;;;;;;14.53;64.41;102074.56;5107079;27;20906;-84
2023/10/17 10:31:34;;;;;;;0.10;0.10;;;;;;;14.66;62.96;102061.91;5091134;28;20116;-85
2023/10/17 10:34:00;;;;;;;0.32;0.32;;;;;;;14.67;62.67;102062.81;5092175;28;20479;-84
2023/10/17 10:36:27;;;;;;;0.10;0.10;;;;;;;14.74;62.81;102061.75;5091710;28;20028;-83
2023/10/17 10:38:54;;;;;;;0.20;0.20;;;;;;;14.74;60.85;102067.09;5090495;28;20073;-84
2023/10/17 10:41:23;;;;;;;0.15;0.15;;;;;;;14.75;60.41;102068.88;5091728;28;20483;-84
2023/10/17 10:43:57;;;;;;;0.10;0.10;;;;;;;14.81;59.66;102063.41;5092516;28;20036;-84
2023/10/17 10:46:23;;;;;;;0.63;0.63;;;;;;;14.92;62.44;102067.72;5093208;28;20028;-83
2023/10/17 10:48:53;;;;;;;0.10;0.10;;;;;;;14.93;61.38;102067.66;5090399;28;20040;-83
2023/10/17 10:51:21;;;;;;;0.13;0.13;;;;;;;14.99;60.04;102064.88;5085263;28;20047;-83
2023/10/17 10:53:54;;;;;;;0.10;0.10;;;;;;;15.02;60.83;102063.94;5090304;28;20056;-84
2023/10/17 10:56:22;;;;;;;0.10;0.10;;;;;;;15.08;58.92;102061.16;5082928;28;20040;-83
2023/10/17 10:58:53;;;;;;;0.10;0.10;;;;;;;15.25;61.08;102051.94;5088174;28;20035;-82
2023/10/17 11:01:20;;;;;;;0.10;0.10;;;;;;;15.33;60.68;102050.00;5091026;28;20024;-84
2023/10/17 11:03:47;;;;;;;0.10;0.10;;;;;;;15.39;58.85;102044.53;5089879;28;20028;-82
2023/10/17 11:06:15;;;;;;;0.10;0.10;;;;;;;15.46;59.02;102051.47;5086879;28;20141;-83
2023/10/17 11:11:18;;;;;;;0.13;0.13;;;;;;;15.59;59.06;102041.44;4985815;28;20390;-83
2023/10/17 11:13:47;;;;;;;0.20;0.20;;;;;;;15.57;56.76;102037.91;4962813;28;20126;-82
2023/10/17 11:16:17;;;;;;;1.45;0.32;;;;;;;15.65;58.98;102038.63;5006408;28;20442;-82
2023/10/17 11:18:43;;;;;;;0.28;0.28;;;;;;;15.67;57.65;102028.75;5007088;28;20412;-82
2023/10/17 11:21:10;;;;;;;1.55;0.73;;;;;;;15.74;56.54;102023.28;4980379;28;20031;-82
2023/10/17 11:23:41;;;;;;;0.10;0.10;;;;;;;15.83;57.92;102023.13;4966644;28;20050;-83
2023/10/17 11:26:12;;;;;;;0.20;0.20;;;;;;;15.85;56.84;102016.81;4966354;28;20043;-82
2023/10/17 11:28:42;;;;;;;0.10;0.10;;;;;;;15.97;57.78;102017.44;4968995;28;20027;-84
2023/10/17 11:31:21;;;;;;;0.35;0.35;;;;;;;15.98;55.72;102017.41;4983628;28;20074;-84
2023/10/17 11:34:04;;;;;;;0.43;0.43;;;;;;;16.11;56.61;102007.31;4975078;28;20031;-84
2023/10/17 11:36:45;;;;;;;;;;;;;;;16.15;51.98;102008.97;4974510;28;20035;-83
2023/10/17 11:39:15;;;;;;;0.10;0.10;;;;;;;16.09;52.95;102000.25;4978131;28;19910;-84
2023/10/17 11:41:53;;;;;;;1.48;1.38;;;;;;;16.18;52.90;101997.31;4973706;28;20123;-84
2023/10/17 11:44:24;;;;;;;0.10;0.10;;;;;;;16.12;52.22;101993.00;4972696;28;20542;-84
2023/10/17 11:47:06;;;;;;;0.10;0.10;;;;;;;16.15;54.33;101998.28;4971750;28;20031;-84
2023/10/17 11:49:35;;;;;;;0.20;0.20;;;;;;;16.19;52.53;101983.03;4983434;28;20077;-84
2023/10/17 11:52:09;;;;;;;0.10;0.10;;;;;;;16.28;54.09;101993.47;4971178;28;20493;-84
2023/10/17 11:55:00;;;;;;;0.10;0.10;;;;;;;16.42;53.62;101993.13;4971941;28;20027;-84
2023/10/17 11:57:28;;;;;;;0.17;0.17;;;;;;;16.38;52.75;101988.78;4968459;28;20019;-84
2023/10/17 12:02:33;;;;;;;0.10;0.10;;;;;;;16.41;52.16;101982.47;5073256;28;20382;-81
2023/10/17 12:05:03;;;;;;;0.17;0.17;;;;;;;16.42;52.97;101970.84;5076366;28;20111;-84
2023/10/17 12:07:30;;;;;;;0.10;0.10;;;;;;;16.36;52.09;101963.88;5051908;28;20083;-80
2023/10/17 12:10:04;;;;;;;0.00;0.00;;;;;;;16.44;53.72;101966.34;5056335;28;20037;-84
2023/10/17 12:12:30;;;;;;;0.77;0.77;;;;;;;16.41;53.01;101955.72;5056336;28;20029;-82
2023/10/17 12:14:57;;;;;;;0.20;0.20;;;;;;;16.46;52.92;101948.44;5062253;28;20030;-82
2023/10/17 12:17:23;;;;;;;0.10;0.10;;;;;;;16.55;52.93;101945.53;5062596;28;20029;-82
2023/10/17 12:19:51;;;;;;;0.10;0.10;;;;;;;16.62;52.81;101941.78;5056110;28;20421;-84
2023/10/17 12:22:17;;;;;;;0.10;0.10;;;;;;;16.67;52.65;101941.63;5055322;28;20031;-83
2023/10/17 12:24:45;;;;;;;0.10;0.10;;;;;;;16.71;52.09;101937.06;5056577;28;20112;-82
2023/10/17 12:27:12;;;;;;;0.10;0.10;;;;;;;16.76;52.88;101935.13;5051459;28;20032;-81
2023/10/17 12:29:40;;;;;;;0.10;0.10;;;;;;;16.71;49.91;101932.63;5051798;28;20541;-82
2023/10/17 12:32:10;;;;;;;0.10;0.10;;;;;;;16.79;52.17;101925.22;5062209;28;20131;-82
2023/10/17 12:34:39;;;;;;;3.08;1.08;;;;;;;16.82;52.10;101914.44;5058389;28;20025;-85
2023/10/17 12:37:09;;;;;;;0.10;0.10;;;;;;;16.85;51.85;101904.56;5053691;28;20039;-83
2023/10/17 12:39:35;;;;;;;0.10;0.10;;;;;;;16.93;53.05;101894.53;5054067;28;20032;-81
2023/10/17 12:42:01;;;;;;;0.00;0.00;;;;;;;16.97;51.28;101896.19;5055360;28;20051;-83
2023/10/17 12:44:28;;;;;;;0.57;0.57;;;;;;;16.95;49.99;101903.41;5055026;28;20025;-83
2023/10/17 12:46:54;;;;;;;0.10;0.10;;;;;;;17.02;51.14;101904.09;5058091;28;20052;-84
2023/10/17 12:49:22;;;;;;;0.30;0.30;;;;;;;16.96;50.19;101899.81;5050492;28;20025;-86
2023/10/17 12:51:48;;;;;;;0.10;0.10;;;;;;;16.92;48.89;101903.50;5054167;28;20025;-85
2023/10/17 12:54:14;;;;;;;0.45;0.45;;;;;;;16.90;50.52;101895.47;5061811;28;20035;-85
2023/10/17 12:56:40;;;;;;;0.10;0.10;;;;;;;16.81;50.09;101888.59;5057806;28;20040;-86
2023/10/17 12:59:12;;;;;;;0.10;0.10;;;;;;;16.76;49.88;101887.88;5078210;28;20036;-84
2023/10/17 13:01:38;;;;;;;0.10;0.10;;;;;;;16.75;49.84;101891.47;5067846;28;20065;-84
2023/10/17 13:04:05;;;;;;;0.00;0.00;;;;;;;16.72;50.09;101883.50;5063192;28;20537;-86
2023/10/17 13:06:31;;;;;;;0.10;0.10;;;;;;;16.78;49.90;101879.78;5055350;28;20106;-86
2023/10/17 13:08:57;;;;;;;1.25;1.15;;;;;;;16.75;50.73;101871.84;5052392;28;20525;-86
2023/10/17 13:11:25;;;;;;;3.42;0.75;;;;;;;16.64;49.41;101867.69;5056383;28;20261;-86
2023/10/17 13:13:51;;;;;;;0.10;0.10;;;;;;;16.69;51.18;101859.53;5045763;28;20059;-85
2023/10/17 13:16:19;;;;;;;0.20;0.20;;;;;;;16.61;51.18;101861.53;5047597;28;20064;-85
2023/10/17 13:18:50;;;;;;;0.10;0.10;;;;;;;16.59;51.60;101863.41;5051317;28;20099;-86
2023/10/17 13:21:17;;;;;;;0.10;0.10;;;;;;;16.58;51.98;101864.31;5041112;28;20060;-85
2023/10/17 13:23:44;;;;;;;0.10;0.10;;;;;;;16.64;52.02;101861.47;5055042;28;20490;-86
2023/10/17 13:26:12;;;;;;;0.10;0.10;;;;;;;16.60;51.47;101866.03;5055924;28;20025;-86
2023/10/17 13:28:39;;;;;;;0.10;0.10;;;;;;;16.67;50.89;101856.00;5042870;28;20096;-86
2023/10/17 13:31:09;;;;;;;0.10;0.10;;;;;;;16.85;51.79;101853.69;5047862;28;20055;-86
2023/10/17 13:33:36;;;;;;;0.10;0.10;;;;;;;16.86;50.38;101848.31;5044175;28;20029;-86
2023/10/17 13:36:02;;;;;;;1.17;0.60;;;;;;;16.92;51.30;101845.50;5045676;28;20064;-86
2023/10/17 13:38:28;;;;;;;0.10;0.10;;;;;;;16.95;50.44;101850.75;5049075;28;20030;-87
2023/10/17 13:41:06;;;;;;;0.85;0.40;;;;;;;17.02;49.23;101846.06;5036138;28;20055;-86
2023/10/17 13:43:33;;;;;;;0.20;0.20;;;;;;;16.98;48.81;101844.41;5044424;28;20033;-86
2023/10/17 13:46:00;;;;;;;0.10;0.10;;;;;;;17.00;50.54;101834.53;5041505;28;20056;-86
2023/10/17 13:48:27;;;;;;;0.10;0.10;;;;;;;17.00;50.16;101842.56;5041633;28;20027;-86